Devine, Texas
Current Conditions -  °F | °C
As of 5:15 AM on Thursday 23 Oct 2014 (Local Time) from KCVB Reporting Station
Overcast Overcast  
Wind Chill: 68°   Ceiling: 4900
Heat Index: 68°   Visibility: 10mi
Dew Point: 65°   Wind: 0mph
Humidity: 90%   Direction: NA
Pressure: 30.12"   Gusts: NA
Location:  29.14°N, 98.91°W
Report Text: KCVB 231015Z AUTO 00000KT 10SM SCT020 SCT043 OVC049 20/18 A3012 RMK AO2 T01990182
Loading
Personal Weather Stations






























Interactive Weather Map New forecast layout! Learn more

10-Day Weather Forecast

Advertisements
Track Severe Weather on mobile